x

Shumagin Islands - 85nm South Of Sand Point, Ak (46075) Wave Buoy

9:50am - Thu 2nd Jul 2015 All times are UTC.

  • Sig Wave height 2.6ft
  • Peak Period 9s
  • Average Period 5s
  • Wind
    13mph, 16mph gusts
  • Sea Temp 53°f
  • Air Temp 52°f
  • Sea Pressure 1021.1mb

More Historic Weather Station data

Upgrade to MSW Pro to gain access to the past 30 days of data for over 8000 Wavebouys and Weather Stations around the globe.

Join Pro

Comparision Forecast

View Surf forecast
   
Thu 07/02 9:50am 2.5ft 9s 5s 13 16 mph 1021.1mb 53f 52f
8:50am 3ft 9s 7s 11 13 mph 1021.7mb 53f 53f
7:50am 3ft 9s 8s 9 11 mph 1021.8mb 53f 53f
6:50am 3ft 9s 8s 9 11 mph 1021.8mb 53f 53f
5:50am 3ft 9s 8s 7
mph
1021.9mb 56f 53f
4:50am 3.5ft 10s 8s 4 7 mph 1021.8mb 57f 54f
3:50am 3.5ft 9s 8s 7 9 mph 1021.9mb 57f 53f
2:50am 3.5ft 8s 8s 7 11 mph 1022.1mb 56f 53f
1:50am 3.5ft 9s 8s 7 11 mph 1022.3mb 57f 53f
12:50am 3.5ft 9s 9s 4 7 mph 1022.4mb 57f 53f
Wed 07/01 11:50pm 3.5ft 9s 9s 4 7 mph 1022.4mb 56f 53f
10:50pm 3.5ft 9s 8s 2 4 mph 1022.5mb 55f 52f
9:50pm 3.5ft 10s 8s  -  2 mph 1022.4mb 54f 52f
8:50pm 3ft 9s 8s 2 4 mph 1022.3mb 53f 51f
7:50pm 3ft 9s 8s 7 9 mph 1022.1mb 53f 50f
6:50pm 3ft 10s 8s 7 9 mph 1021.9mb 53f 49f
5:50pm 2.5ft 10s 8s 7 9 mph 1021.8mb 52f 49f
4:50pm 3ft 9s 9s 7 9 mph 1021.6mb 53f 51f
3:50pm 3.5ft 10s 8s 7
mph
1021.3mb 54f 51f
2:50pm 2.5ft 10s 8s 4 7 mph 1020.9mb 54f 53f
1:50pm 3ft 10s 8s 4 7 mph 1020.8mb 55f 54f
12:50pm 3ft 10s 8s 2 4 mph 1020.8mb 55f 54f
11:50am 2.5ft 10s 8s 4
mph
1020.9mb 55f 54f
10:50am 3ft 10s 8s 4 7 mph 1020.7mb 54f 54f
9:50am 2.5ft 10s 8s 4
mph
1020.6mb 55f 54f
8:50am 2.5ft 10s 8s 4 7 mph 1020.4mb 55f 55f
7:50am 3ft 10s 7s 4 7 mph 1020.2mb 57f 55f
6:50am 2.5ft 13s 7s 4 7 mph 1020.1mb 54f 56f
5:50am 2.5ft 13s 6s  -  2 mph 1019.8mb 55f 57f
4:50am 2.5ft 13s 7s  -  2 mph 1019.8mb 55f 58f
3:50am 2.5ft 13s 7s  -  2 mph 1020mb 57f 58f
2:50am 3ft 13s 7s  -  2 mph 1019.5mb 56f 58f
1:50am 2.5ft 14s 6s 2
mph
1019.3mb 56f 56f
12:50am 2.5ft 13s 6s 2 4 mph 1019.2mb 56f 55f
Tue 06/30 11:50pm 2.5ft 14s 6s 2 4 mph 1019.1mb 55f 55f
10:50pm 2.5ft 14s 6s 2 4 mph 1019mb 54f 54f
9:50pm 2.5ft 14s 5s 7
mph
1018.7mb 53f 53f
8:50pm 2.5ft 13s 5s 9
mph
1018.6mb 53f 53f
7:50pm 2.5ft 5s 5s 7 9 mph 1018.6mb 53f 53f
6:50pm 2.5ft 14s 5s 4 7 mph 1018.3mb 52f 53f
5:50pm 2.5ft 5s 5s 2 4 mph 1017.8mb 52f 53f
4:50pm 2.5ft 12s 5s 9
mph
1017.5mb 52f 53f
3:50pm 2.5ft 4s 5s 9
mph
1016.9mb 52f 53f
2:50pm 2.5ft 13s 5s 9 11 mph 1016.6mb 52f 52f
1:50pm 2.5ft 14s 5s 9
mph
1016.2mb 52f 52f
12:50pm 3ft 14s 5s 11 13 mph 1016mb 52f 53f
11:50am 2.5ft 14s 5s 11 13 mph 1015.7mb 52f 53f
10:50am 2.5ft 15s 6s 9
mph
1015.5mb 52f 53f
9:50am 2.5ft 11s 5s 7 9 mph 1015mb 52f 53f
8:50am 2.5ft 15s 6s 9 11 mph 1014.8mb 52f 53f
7:50am 2.5ft 14s 5s 7
mph
1014.5mb 52f 53f
6:50am 2.5ft 13s 5s 7 9 mph 1013.8mb 52f 53f
5:50am 2.5ft 15s 5s 9
mph
1013.3mb 52f 53f
4:50am 2.5ft 11s 5s 9 11 mph 1013mb 52f 53f
3:50am 2.5ft 6s 5s 9
mph
1012.7mb 52f 53f
2:50am 2.5ft 15s 5s 9 11 mph 1012.5mb 52f 53f
1:50am 3ft 15s 6s 4 7 mph 1012.1mb 52f 53f
12:50am 2.5ft 11s 6s 7 9 mph 1012.1mb 52f 53f
Mon 06/29 11:50pm 3ft 13s 6s 9 11 mph 1011.8mb 52f 52f
10:50pm 3ft 15s 6s 9
mph
1011.6mb 51f 52f
9:50pm 2.5ft 11s 5s 9 11 mph 1011.4mb 51f 52f
8:50pm 2.5ft 7s 5s 9 11 mph 1011mb 51f 52f
7:50pm 3ft 7s 5s 9 11 mph 1010.8mb 51f 51f
6:50pm 3ft 7s 6s 9 11 mph 1010.7mb 51f 51f
5:50pm 3ft 7s 5s 4 7 mph 1010.4mb 51f 50f
4:50pm 3.5ft 7s 5s 4 7 mph 1010.3mb 51f 50f
3:50pm 3.5ft 7s 5s 4
mph
1010.1mb 51f 51f
2:50pm 3.5ft 5s 5s 4
mph
1009.7mb 51f 51f
1:50pm 4ft 7s 5s 4 7 mph 1009.3mb 51f 51f
12:50pm 3.5ft 7s 5s 4
mph
1009mb 51f 51f
11:50am 4ft 8s 5s 7
mph
1008.9mb 51f 51f
10:50am 4ft 8s 5s 7 9 mph 1008.9mb 51f 51f
9:50am 4.5ft 6s 5s 9
mph
1009mb 51f 51f
8:50am 4ft 7s 5s 9 11 mph 1008.7mb 51f 51f
7:50am 4.5ft 8s 5s 7 9 mph 1008.5mb 51f 51f
6:50am 4.5ft 8s 5s 9
mph
1008.3mb 51f 51f
5:50am 4.5ft 8s 5s 11 13 mph 1008.3mb 51f 51f
4:50am 5ft 8s 5s 11 13 mph 1008.1mb 51f 52f
3:50am 4.5ft 8s 5s 11 13 mph 1007.9mb 51f 52f
2:50am 5ft 8s 5s 16 18 mph 1008mb 51f 52f
1:50am 5ft 8s 5s 16 20 mph 1008mb 51f 51f
12:50am 5ft 8s 5s 18 20 mph 1008.3mb 51f 51f
Sun 06/28 11:50pm 5ft 8s 5s 18 20 mph 1008.2mb 51f 50f
10:50pm 5.5ft 8s 5s 18 22 mph 1008.1mb 50f 50f
9:50pm 5ft 7s 5s 20 22 mph 1008.1mb 50f 50f
8:50pm 5ft 7s 5s 18 20 mph 1007.9mb 50f 50f
7:50pm  -   -   -  18 20 mph 1007.8mb 50f 49f
6:50pm 5ft 5s 5s 20 25 mph 1007.7mb 50f 49f
5:50pm 5ft 7s 5s 18 22 mph 1007.4mb 50f 49f
4:50pm 5ft 8s 5s 16 18 mph 1007.2mb 50f 49f
3:50pm 5ft 8s 5s 16 18 mph 1007mb 50f 49f
2:50pm 5ft 7s 5s 11 13 mph 1007.1mb 50f 49f
1:50pm 5ft 7s 5s 11 16 mph 1007mb 50f 47f
12:50pm 5ft 8s 5s 11 13 mph 1007mb 51f 49f
11:50am 5ft 6s 5s 18 20 mph 1007mb 51f 49f
10:50am 5.5ft 8s 5s 18 20 mph 1007.2mb 50f 49f